sensor_id;sensor_type;location;lat;lon;timestamp;temperature;humidity
78455;SHT31;67751;51.986;5.696;2024-01-30T00:02:29;10.0;74.2
78455;SHT31;67751;51.986;5.696;2024-01-30T00:04:58;10.0;74.2
78455;SHT31;67751;51.986;5.696;2024-01-30T00:07:30;10.0;74.2
78455;SHT31;67751;51.986;5.696;2024-01-30T00:10:00;10.0;74.7
78455;SHT31;67751;51.986;5.696;2024-01-30T00:12:29;9.9;74.6
78455;SHT31;67751;51.986;5.696;2024-01-30T00:14:59;9.9;74.5
78455;SHT31;67751;51.986;5.696;2024-01-30T00:17:29;9.9;74.5
78455;SHT31;67751;51.986;5.696;2024-01-30T00:19:58;9.9;74.5
78455;SHT31;67751;51.986;5.696;2024-01-30T00:22:30;9.9;74.3
78455;SHT31;67751;51.986;5.696;2024-01-30T00:25:00;9.9;74.1
78455;SHT31;67751;51.986;5.696;2024-01-30T00:27:29;9.9;74.2
78455;SHT31;67751;51.986;5.696;2024-01-30T00:30:01;9.9;74.1
78455;SHT31;67751;51.986;5.696;2024-01-30T00:32:30;9.9;74.1
78455;SHT31;67751;51.986;5.696;2024-01-30T00:35:00;9.9;74.1
78455;SHT31;67751;51.986;5.696;2024-01-30T00:37:29;9.9;74.0
78455;SHT31;67751;51.986;5.696;2024-01-30T00:39:59;9.9;74.0
78455;SHT31;67751;51.986;5.696;2024-01-30T00:42:29;9.9;74.0
78455;SHT31;67751;51.986;5.696;2024-01-30T00:44:59;9.8;73.9
78455;SHT31;67751;51.986;5.696;2024-01-30T00:47:28;9.8;73.9
78455;SHT31;67751;51.986;5.696;2024-01-30T00:50:00;9.8;73.7
78455;SHT31;67751;51.986;5.696;2024-01-30T00:52:30;9.8;73.6
78455;SHT31;67751;51.986;5.696;2024-01-30T00:55:00;9.8;73.7
78455;SHT31;67751;51.986;5.696;2024-01-30T00:57:30;9.8;73.7
78455;SHT31;67751;51.986;5.696;2024-01-30T01:00:00;9.7;73.7
78455;SHT31;67751;51.986;5.696;2024-01-30T01:02:30;9.7;73.7
78455;SHT31;67751;51.986;5.696;2024-01-30T01:04:59;9.7;73.8
78455;SHT31;67751;51.986;5.696;2024-01-30T01:07:29;9.7;73.9
78455;SHT31;67751;51.986;5.696;2024-01-30T01:09:59;9.7;73.8
78455;SHT31;67751;51.986;5.696;2024-01-30T01:12:28;9.7;73.9
78455;SHT31;67751;51.986;5.696;2024-01-30T01:14:58;9.6;74.0
78455;SHT31;67751;51.986;5.696;2024-01-30T01:17:27;9.6;74.0
78455;SHT31;67751;51.986;5.696;2024-01-30T01:19:57;9.6;74.0
78455;SHT31;67751;51.986;5.696;2024-01-30T01:22:27;9.6;74.2
78455;SHT31;67751;51.986;5.696;2024-01-30T01:24:56;9.6;74.1
78455;SHT31;67751;51.986;5.696;2024-01-30T01:27:26;9.6;73.9
78455;SHT31;67751;51.986;5.696;2024-01-30T01:29:56;9.6;73.8
78455;SHT31;67751;51.986;5.696;2024-01-30T01:32:27;9.6;73.7
78455;SHT31;67751;51.986;5.696;2024-01-30T01:34:56;9.6;73.7
78455;SHT31;67751;51.986;5.696;2024-01-30T01:37:26;9.6;73.7
78455;SHT31;67751;51.986;5.696;2024-01-30T01:39:55;9.6;73.7
78455;SHT31;67751;51.986;5.696;2024-01-30T01:42:25;9.6;73.6
78455;SHT31;67751;51.986;5.696;2024-01-30T01:44:54;9.6;73.7
78455;SHT31;67751;51.986;5.696;2024-01-30T01:47:24;9.5;73.6
78455;SHT31;67751;51.986;5.696;2024-01-30T01:49:54;9.5;73.7
78455;SHT31;67751;51.986;5.696;2024-01-30T01:52:23;9.5;73.9
78455;SHT31;67751;51.986;5.696;2024-01-30T01:54:53;9.5;73.8
78455;SHT31;67751;51.986;5.696;2024-01-30T01:57:23;9.5;73.9
78455;SHT31;67751;51.986;5.696;2024-01-30T01:59:53;9.5;73.9
78455;SHT31;67751;51.986;5.696;2024-01-30T02:02:24;9.5;73.9
78455;SHT31;67751;51.986;5.696;2024-01-30T02:04:57;9.5;73.9
78455;SHT31;67751;51.986;5.696;2024-01-30T02:07:27;9.5;74.0
78455;SHT31;67751;51.986;5.696;2024-01-30T02:09:57;9.5;74.0
78455;SHT31;67751;51.986;5.696;2024-01-30T02:12:27;9.5;73.9
78455;SHT31;67751;51.986;5.696;2024-01-30T02:14:57;9.5;74.1
78455;SHT31;67751;51.986;5.696;2024-01-30T02:17:26;9.5;74.0
78455;SHT31;67751;51.986;5.696;2024-01-30T02:19:56;9.4;74.0
78455;SHT31;67751;51.986;5.696;2024-01-30T02:22:26;9.4;73.9
78455;SHT31;67751;51.986;5.696;2024-01-30T02:24:56;9.4;73.9
78455;SHT31;67751;51.986;5.696;2024-01-30T02:27:25;9.4;73.8
78455;SHT31;67751;51.986;5.696;2024-01-30T02:29:55;9.4;74.0
78455;SHT31;67751;51.986;5.696;2024-01-30T02:32:24;9.4;74.1
78455;SHT31;67751;51.986;5.696;2024-01-30T02:34:54;9.4;74.0
78455;SHT31;67751;51.986;5.696;2024-01-30T02:37:25;9.4;73.9
78455;SHT31;67751;51.986;5.696;2024-01-30T02:39:55;9.4;73.9
78455;SHT31;67751;51.986;5.696;2024-01-30T02:42:24;9.4;73.9
78455;SHT31;67751;51.986;5.696;2024-01-30T02:44:54;9.4;73.8
78455;SHT31;67751;51.986;5.696;2024-01-30T02:47:23;9.4;73.9
78455;SHT31;67751;51.986;5.696;2024-01-30T02:49:53;9.4;74.0
78455;SHT31;67751;51.986;5.696;2024-01-30T02:52:23;9.4;74.1
78455;SHT31;67751;51.986;5.696;2024-01-30T02:54:52;9.4;74.1
78455;SHT31;67751;51.986;5.696;2024-01-30T02:57:22;9.4;74.2
78455;SHT31;67751;51.986;5.696;2024-01-30T02:59:51;9.4;74.1
78455;SHT31;67751;51.986;5.696;2024-01-30T03:02:21;9.4;74.4
78455;SHT31;67751;51.986;5.696;2024-01-30T03:04:50;9.4;74.1
78455;SHT31;67751;51.986;5.696;2024-01-30T03:07:20;9.4;74.0
78455;SHT31;67751;51.986;5.696;2024-01-30T03:09:49;9.4;73.9
78455;SHT31;67751;51.986;5.696;2024-01-30T03:12:19;9.5;73.9
78455;SHT31;67751;51.986;5.696;2024-01-30T03:14:49;9.5;73.6
78455;SHT31;67751;51.986;5.696;2024-01-30T03:17:19;9.5;73.6
78455;SHT31;67751;51.986;5.696;2024-01-30T03:19:48;9.5;73.5
78455;SHT31;67751;51.986;5.696;2024-01-30T03:22:18;9.5;73.4
78455;SHT31;67751;51.986;5.696;2024-01-30T03:24:47;9.5;73.5
78455;SHT31;67751;51.986;5.696;2024-01-30T03:27:17;9.5;73.4
78455;SHT31;67751;51.986;5.696;2024-01-30T03:29:46;9.5;73.3
78455;SHT31;67751;51.986;5.696;2024-01-30T03:32:16;9.5;73.3
78455;SHT31;67751;51.986;5.696;2024-01-30T03:34:45;9.5;73.3
78455;SHT31;67751;51.986;5.696;2024-01-30T03:37:15;9.5;73.3
78455;SHT31;67751;51.986;5.696;2024-01-30T03:39:45;9.5;73.3
78455;SHT31;67751;51.986;5.696;2024-01-30T03:42:15;9.5;73.3
78455;SHT31;67751;51.986;5.696;2024-01-30T03:44:46;9.5;73.3
78455;SHT31;67751;51.986;5.696;2024-01-30T03:47:19;9.5;73.3
78455;SHT31;67751;51.986;5.696;2024-01-30T03:49:50;9.5;73.1
78455;SHT31;67751;51.986;5.696;2024-01-30T03:52:20;9.5;73.3
78455;SHT31;67751;51.986;5.696;2024-01-30T03:54:50;9.5;73.4
78455;SHT31;67751;51.986;5.696;2024-01-30T03:57:19;9.5;73.5
78455;SHT31;67751;51.986;5.696;2024-01-30T03:59:49;9.5;73.3
78455;SHT31;67751;51.986;5.696;2024-01-30T04:02:19;9.5;73.4
78455;SHT31;67751;51.986;5.696;2024-01-30T04:04:48;9.5;73.5
78455;SHT31;67751;51.986;5.696;2024-01-30T04:07:18;9.5;73.6
78455;SHT31;67751;51.986;5.696;2024-01-30T04:09:47;9.5;73.5
78455;SHT31;67751;51.986;5.696;2024-01-30T04:12:17;9.5;73.7
78455;SHT31;67751;51.986;5.696;2024-01-30T04:14:46;9.5;73.6
78455;SHT31;67751;51.986;5.696;2024-01-30T04:17:16;9.6;73.6
78455;SHT31;67751;51.986;5.696;2024-01-30T04:19:45;9.6;73.7
78455;SHT31;67751;51.986;5.696;2024-01-30T04:22:17;9.6;73.6
78455;SHT31;67751;51.986;5.696;2024-01-30T04:24:47;9.6;73.8
78455;SHT31;67751;51.986;5.696;2024-01-30T04:27:16;9.6;73.7
78455;SHT31;67751;51.986;5.696;2024-01-30T04:29:46;9.6;73.8
78455;SHT31;67751;51.986;5.696;2024-01-30T04:32:16;9.6;74.0
78455;SHT31;67751;51.986;5.696;2024-01-30T04:34:47;9.6;73.7
78455;SHT31;67751;51.986;5.696;2024-01-30T04:37:17;9.6;73.7
78455;SHT31;67751;51.986;5.696;2024-01-30T04:39:46;9.6;73.6
78455;SHT31;67751;51.986;5.696;2024-01-30T04:42:16;9.6;73.6
78455;SHT31;67751;51.986;5.696;2024-01-30T04:44:46;9.7;73.5
78455;SHT31;67751;51.986;5.696;2024-01-30T04:47:15;9.7;73.4
78455;SHT31;67751;51.986;5.696;2024-01-30T04:49:45;9.7;73.6
78455;SHT31;67751;51.986;5.696;2024-01-30T04:52:14;9.7;73.4
78455;SHT31;67751;51.986;5.696;2024-01-30T04:54:44;9.7;73.5
78455;SHT31;67751;51.986;5.696;2024-01-30T04:57:13;9.7;73.3
78455;SHT31;67751;51.986;5.696;2024-01-30T04:59:43;9.7;73.2
78455;SHT31;67751;51.986;5.696;2024-01-30T05:02:12;9.7;73.1
78455;SHT31;67751;51.986;5.696;2024-01-30T05:04:42;9.7;73.3
78455;SHT31;67751;51.986;5.696;2024-01-30T05:07:12;9.7;73.3
78455;SHT31;67751;51.986;5.696;2024-01-30T05:09:41;9.8;73.6
78455;SHT31;67751;51.986;5.696;2024-01-30T05:12:13;9.8;73.4
78455;SHT31;67751;51.986;5.696;2024-01-30T05:14:42;9.8;73.6
78455;SHT31;67751;51.986;5.696;2024-01-30T05:17:12;9.8;73.5
78455;SHT31;67751;51.986;5.696;2024-01-30T05:19:43;9.8;73.6
78455;SHT31;67751;51.986;5.696;2024-01-30T05:22:12;9.8;73.5
78455;SHT31;67751;51.986;5.696;2024-01-30T05:24:45;9.8;73.6
78455;SHT31;67751;51.986;5.696;2024-01-30T05:27:14;9.8;73.6
78455;SHT31;67751;51.986;5.696;2024-01-30T05:29:44;9.8;73.6
78455;SHT31;67751;51.986;5.696;2024-01-30T05:32:13;9.8;73.5
78455;SHT31;67751;51.986;5.696;2024-01-30T05:34:43;9.8;73.6
78455;SHT31;67751;51.986;5.696;2024-01-30T05:37:12;9.9;73.5
78455;SHT31;67751;51.986;5.696;2024-01-30T05:39:44;9.9;73.5
78455;SHT31;67751;51.986;5.696;2024-01-30T05:42:14;9.9;73.5
78455;SHT31;67751;51.986;5.696;2024-01-30T05:44:44;9.9;73.7
78455;SHT31;67751;51.986;5.696;2024-01-30T05:47:14;9.9;73.6
78455;SHT31;67751;51.986;5.696;2024-01-30T05:49:43;9.9;73.6
78455;SHT31;67751;51.986;5.696;2024-01-30T05:52:13;9.9;73.6
78455;SHT31;67751;51.986;5.696;2024-01-30T05:54:42;9.9;73.5
78455;SHT31;67751;51.986;5.696;2024-01-30T05:57:12;9.9;73.4
78455;SHT31;67751;51.986;5.696;2024-01-30T05:59:41;9.9;73.5
78455;SHT31;67751;51.986;5.696;2024-01-30T06:02:12;9.9;73.6
78455;SHT31;67751;51.986;5.696;2024-01-30T06:04:41;9.9;73.6
78455;SHT31;67751;51.986;5.696;2024-01-30T06:07:11;9.9;73.7
78455;SHT31;67751;51.986;5.696;2024-01-30T06:09:41;9.9;73.7
78455;SHT31;67751;51.986;5.696;2024-01-30T06:12:10;9.9;73.7
78455;SHT31;67751;51.986;5.696;2024-01-30T06:14:40;9.9;73.7
78455;SHT31;67751;51.986;5.696;2024-01-30T06:17:10;9.9;73.8
78455;SHT31;67751;51.986;5.696;2024-01-30T06:19:40;10.0;74.0
78455;SHT31;67751;51.986;5.696;2024-01-30T06:22:09;10.0;74.0
78455;SHT31;67751;51.986;5.696;2024-01-30T06:24:39;10.0;74.2
78455;SHT31;67751;51.986;5.696;2024-01-30T06:27:08;10.0;74.1
78455;SHT31;67751;51.986;5.696;2024-01-30T06:29:40;10.0;74.0
78455;SHT31;67751;51.986;5.696;2024-01-30T06:32:09;10.0;74.1
78455;SHT31;67751;51.986;5.696;2024-01-30T06:34:41;10.0;74.1
78455;SHT31;67751;51.986;5.696;2024-01-30T06:37:11;10.1;74.1
78455;SHT31;67751;51.986;5.696;2024-01-30T06:39:43;10.1;74.1
78455;SHT31;67751;51.986;5.696;2024-01-30T06:42:13;10.1;74.0
78455;SHT31;67751;51.986;5.696;2024-01-30T06:44:42;10.1;74.0
78455;SHT31;67751;51.986;5.696;2024-01-30T06:47:12;10.1;74.0
78455;SHT31;67751;51.986;5.696;2024-01-30T06:49:42;10.1;73.9
78455;SHT31;67751;51.986;5.696;2024-01-30T06:52:12;10.1;74.0
78455;SHT31;67751;51.986;5.696;2024-01-30T06:54:42;10.2;74.0
78455;SHT31;67751;51.986;5.696;2024-01-30T06:57:11;10.2;74.1
78455;SHT31;67751;51.986;5.696;2024-01-30T06:59:41;10.2;74.1
78455;SHT31;67751;51.986;5.696;2024-01-30T07:02:11;10.2;74.0
78455;SHT31;67751;51.986;5.696;2024-01-30T07:04:41;10.2;73.9
78455;SHT31;67751;51.986;5.696;2024-01-30T07:07:10;10.2;73.9
78455;SHT31;67751;51.986;5.696;2024-01-30T07:09:43;10.2;73.9
78455;SHT31;67751;51.986;5.696;2024-01-30T07:12:12;10.3;74.0
78455;SHT31;67751;51.986;5.696;2024-01-30T07:14:42;10.3;74.0
78455;SHT31;67751;51.986;5.696;2024-01-30T07:17:11;10.3;73.8
78455;SHT31;67751;51.986;5.696;2024-01-30T07:19:41;10.3;73.9
78455;SHT31;67751;51.986;5.696;2024-01-30T07:22:11;10.3;73.9
78455;SHT31;67751;51.986;5.696;2024-01-30T07:24:44;10.3;74.0
78455;SHT31;67751;51.986;5.696;2024-01-30T07:27:15;10.3;74.0
78455;SHT31;67751;51.986;5.696;2024-01-30T07:29:46;10.3;74.1
78455;SHT31;67751;51.986;5.696;2024-01-30T07:32:15;10.3;74.2
78455;SHT31;67751;51.986;5.696;2024-01-30T07:34:46;10.3;74.2
78455;SHT31;67751;51.986;5.696;2024-01-30T07:37:15;10.3;74.3
78455;SHT31;67751;51.986;5.696;2024-01-30T07:39:47;10.3;74.3
78455;SHT31;67751;51.986;5.696;2024-01-30T07:42:16;10.3;74.3
78455;SHT31;67751;51.986;5.696;2024-01-30T07:44:46;10.3;74.3
78455;SHT31;67751;51.986;5.696;2024-01-30T07:47:16;10.3;74.3
78455;SHT31;67751;51.986;5.696;2024-01-30T07:49:45;10.3;74.3
78455;SHT31;67751;51.986;5.696;2024-01-30T07:52:17;10.3;74.4
78455;SHT31;67751;51.986;5.696;2024-01-30T07:54:52;10.4;74.5
78455;SHT31;67751;51.986;5.696;2024-01-30T07:57:22;10.4;74.5
78455;SHT31;67751;51.986;5.696;2024-01-30T07:59:52;10.4;74.6
78455;SHT31;67751;51.986;5.696;2024-01-30T08:02:22;10.4;74.6
78455;SHT31;67751;51.986;5.696;2024-01-30T08:04:51;10.4;74.7
78455;SHT31;67751;51.986;5.696;2024-01-30T08:07:21;10.4;74.7
78455;SHT31;67751;51.986;5.696;2024-01-30T08:09:51;10.4;74.8
78455;SHT31;67751;51.986;5.696;2024-01-30T08:12:22;10.4;74.9
78455;SHT31;67751;51.986;5.696;2024-01-30T08:14:52;10.5;74.9
78455;SHT31;67751;51.986;5.696;2024-01-30T08:17:21;10.5;74.9
78455;SHT31;67751;51.986;5.696;2024-01-30T08:19:51;10.5;75.0
78455;SHT31;67751;51.986;5.696;2024-01-30T08:22:20;10.5;75.2
78455;SHT31;67751;51.986;5.696;2024-01-30T08:24:50;10.5;75.2
78455;SHT31;67751;51.986;5.696;2024-01-30T08:27:19;10.6;75.2
78455;SHT31;67751;51.986;5.696;2024-01-30T08:29:49;10.6;75.2
78455;SHT31;67751;51.986;5.696;2024-01-30T08:32:18;10.6;75.3
78455;SHT31;67751;51.986;5.696;2024-01-30T08:34:48;10.6;75.4
78455;SHT31;67751;51.986;5.696;2024-01-30T08:37:17;10.6;75.5
78455;SHT31;67751;51.986;5.696;2024-01-30T08:39:47;10.7;75.5
78455;SHT31;67751;51.986;5.696;2024-01-30T08:42:16;10.7;75.5
78455;SHT31;67751;51.986;5.696;2024-01-30T08:44:50;10.7;75.6
78455;SHT31;67751;51.986;5.696;2024-01-30T08:47:20;10.8;75.5
78455;SHT31;67751;51.986;5.696;2024-01-30T08:49:50;10.8;75.6
78455;SHT31;67751;51.986;5.696;2024-01-30T08:52:20;10.8;75.7
78455;SHT31;67751;51.986;5.696;2024-01-30T08:54:49;10.8;75.7
78455;SHT31;67751;51.986;5.696;2024-01-30T08:57:19;10.9;75.6
78455;SHT31;67751;51.986;5.696;2024-01-30T08:59:49;10.9;75.6
78455;SHT31;67751;51.986;5.696;2024-01-30T09:02:18;10.9;75.8
78455;SHT31;67751;51.986;5.696;2024-01-30T09:04:48;11.0;75.7
78455;SHT31;67751;51.986;5.696;2024-01-30T09:07:19;11.0;75.8
78455;SHT31;67751;51.986;5.696;2024-01-30T09:09:49;11.0;75.8
78455;SHT31;67751;51.986;5.696;2024-01-30T09:12:18;11.1;75.8
78455;SHT31;67751;51.986;5.696;2024-01-30T09:14:48;11.1;75.9
78455;SHT31;67751;51.986;5.696;2024-01-30T09:17:17;11.1;76.0
78455;SHT31;67751;51.986;5.696;2024-01-30T09:19:47;11.1;75.8
78455;SHT31;67751;51.986;5.696;2024-01-30T09:22:17;11.2;75.7
78455;SHT31;67751;51.986;5.696;2024-01-30T09:24:48;11.2;75.9
78455;SHT31;67751;51.986;5.696;2024-01-30T09:27:18;11.2;75.7
78455;SHT31;67751;51.986;5.696;2024-01-30T09:29:47;11.3;75.7
78455;SHT31;67751;51.986;5.696;2024-01-30T09:32:17;11.3;75.7
78455;SHT31;67751;51.986;5.696;2024-01-30T09:34:49;11.3;75.6
78455;SHT31;67751;51.986;5.696;2024-01-30T09:37:18;11.4;75.6
78455;SHT31;67751;51.986;5.696;2024-01-30T09:39:48;11.4;75.6
78455;SHT31;67751;51.986;5.696;2024-01-30T09:42:30;11.4;75.7
78455;SHT31;67751;51.986;5.696;2024-01-30T09:45:04;11.4;75.8
78455;SHT31;67751;51.986;5.696;2024-01-30T09:47:41;11.4;75.8
78455;SHT31;67751;51.986;5.696;2024-01-30T09:50:13;11.5;75.8
78455;SHT31;67751;51.986;5.696;2024-01-30T09:52:43;11.5;76.0
78455;SHT31;67751;51.986;5.696;2024-01-30T09:55:13;11.5;76.4
78455;SHT31;67751;51.986;5.696;2024-01-30T09:57:43;11.5;76.4
78455;SHT31;67751;51.986;5.696;2024-01-30T10:00:13;11.6;76.0
78455;SHT31;67751;51.986;5.696;2024-01-30T10:02:45;11.6;75.8
78455;SHT31;67751;51.986;5.696;2024-01-30T10:05:19;11.6;75.9
78455;SHT31;67751;51.986;5.696;2024-01-30T10:07:53;11.6;75.8
78455;SHT31;67751;51.986;5.696;2024-01-30T10:10:23;11.7;75.7
78455;SHT31;67751;51.986;5.696;2024-01-30T10:12:53;11.7;75.9
78455;SHT31;67751;51.986;5.696;2024-01-30T10:15:24;11.7;75.8
78455;SHT31;67751;51.986;5.696;2024-01-30T10:17:57;11.7;75.7
78455;SHT31;67751;51.986;5.696;2024-01-30T10:20:26;11.7;75.7
78455;SHT31;67751;51.986;5.696;2024-01-30T10:22:56;11.8;75.9
78455;SHT31;67751;51.986;5.696;2024-01-30T10:25:29;11.8;75.7
78455;SHT31;67751;51.986;5.696;2024-01-30T10:28:00;11.8;75.6
78455;SHT31;67751;51.986;5.696;2024-01-30T10:30:29;11.8;75.6
78455;SHT31;67751;51.986;5.696;2024-01-30T10:32:59;11.8;75.6
78455;SHT31;67751;51.986;5.696;2024-01-30T10:35:28;11.9;75.5
78455;SHT31;67751;51.986;5.696;2024-01-30T10:38:00;11.9;75.5
78455;SHT31;67751;51.986;5.696;2024-01-30T10:40:32;11.9;75.4
78455;SHT31;67751;51.986;5.696;2024-01-30T10:43:04;11.9;75.4
78455;SHT31;67751;51.986;5.696;2024-01-30T10:45:35;12.0;75.3
78455;SHT31;67751;51.986;5.696;2024-01-30T10:48:09;12.0;75.6
78455;SHT31;67751;51.986;5.696;2024-01-30T10:50:42;12.0;75.0
78455;SHT31;67751;51.986;5.696;2024-01-30T10:53:13;12.0;75.0
78455;SHT31;67751;51.986;5.696;2024-01-30T10:55:46;12.1;75.1
78455;SHT31;67751;51.986;5.696;2024-01-30T10:58:16;12.1;74.8
78455;SHT31;67751;51.986;5.696;2024-01-30T11:00:48;12.1;75.1
78455;SHT31;67751;51.986;5.696;2024-01-30T11:03:19;12.1;75.0
78455;SHT31;67751;51.986;5.696;2024-01-30T11:05:52;12.2;75.1
78455;SHT31;67751;51.986;5.696;2024-01-30T11:08:25;12.2;74.9
78455;SHT31;67751;51.986;5.696;2024-01-30T11:10:57;12.3;74.6
78455;SHT31;67751;51.986;5.696;2024-01-30T11:13:29;12.3;75.2
78455;SHT31;67751;51.986;5.696;2024-01-30T11:16:02;12.3;75.0
78455;SHT31;67751;51.986;5.696;2024-01-30T11:18:35;12.4;74.8
78455;SHT31;67751;51.986;5.696;2024-01-30T11:21:07;12.4;74.5
78455;SHT31;67751;51.986;5.696;2024-01-30T11:23:38;12.4;74.4
78455;SHT31;67751;51.986;5.696;2024-01-30T11:26:10;12.5;74.6
78455;SHT31;67751;51.986;5.696;2024-01-30T11:28:39;12.5;74.2
78455;SHT31;67751;51.986;5.696;2024-01-30T11:31:09;12.5;74.1
78455;SHT31;67751;51.986;5.696;2024-01-30T11:33:39;12.5;73.9
78455;SHT31;67751;51.986;5.696;2024-01-30T11:36:13;12.6;74.3
78455;SHT31;67751;51.986;5.696;2024-01-30T11:38:44;12.6;74.6
78455;SHT31;67751;51.986;5.696;2024-01-30T11:41:15;12.6;74.8
78455;SHT31;67751;51.986;5.696;2024-01-30T11:43:55;12.6;74.2
78455;SHT31;67751;51.986;5.696;2024-01-30T11:46:26;12.6;74.2
78455;SHT31;67751;51.986;5.696;2024-01-30T11:48:56;12.6;74.0
78455;SHT31;67751;51.986;5.696;2024-01-30T11:51:26;12.7;72.7
78455;SHT31;67751;51.986;5.696;2024-01-30T11:53:55;12.7;73.2
78455;SHT31;67751;51.986;5.696;2024-01-30T11:56:27;12.7;73.2
78455;SHT31;67751;51.986;5.696;2024-01-30T11:58:57;12.7;73.4
78455;SHT31;67751;51.986;5.696;2024-01-30T12:01:27;12.7;72.3
78455;SHT31;67751;51.986;5.696;2024-01-30T12:03:59;12.7;72.2
78455;SHT31;67751;51.986;5.696;2024-01-30T12:06:30;12.7;71.7
78455;SHT31;67751;51.986;5.696;2024-01-30T12:09:03;12.7;71.7
78455;SHT31;67751;51.986;5.696;2024-01-30T12:11:43;12.7;71.6
78455;SHT31;67751;51.986;5.696;2024-01-30T12:14:14;12.7;71.3
78455;SHT31;67751;51.986;5.696;2024-01-30T12:16:48;12.7;71.5
78455;SHT31;67751;51.986;5.696;2024-01-30T12:19:24;12.7;71.2
78455;SHT31;67751;51.986;5.696;2024-01-30T12:21:56;12.7;70.6
78455;SHT31;67751;51.986;5.696;2024-01-30T12:24:27;12.6;70.7
78455;SHT31;67751;51.986;5.696;2024-01-30T12:26:58;12.6;69.6
78455;SHT31;67751;51.986;5.696;2024-01-30T12:29:31;12.6;70.4
78455;SHT31;67751;51.986;5.696;2024-01-30T12:32:01;12.5;70.0
78455;SHT31;67751;51.986;5.696;2024-01-30T12:34:33;12.5;70.2
78455;SHT31;67751;51.986;5.696;2024-01-30T12:37:03;12.4;69.9
78455;SHT31;67751;51.986;5.696;2024-01-30T12:39:34;12.4;69.3
78455;SHT31;67751;51.986;5.696;2024-01-30T12:42:04;12.4;69.0
78455;SHT31;67751;51.986;5.696;2024-01-30T12:44:34;12.3;69.3
78455;SHT31;67751;51.986;5.696;2024-01-30T12:47:05;12.3;69.4
78455;SHT31;67751;51.986;5.696;2024-01-30T12:49:34;12.3;70.1
78455;SHT31;67751;51.986;5.696;2024-01-30T12:52:04;12.3;69.2
78455;SHT31;67751;51.986;5.696;2024-01-30T12:54:34;12.2;69.9
78455;SHT31;67751;51.986;5.696;2024-01-30T12:57:04;12.2;70.1
78455;SHT31;67751;51.986;5.696;2024-01-30T12:59:34;12.2;70.2
78455;SHT31;67751;51.986;5.696;2024-01-30T13:02:04;12.2;70.1
78455;SHT31;67751;51.986;5.696;2024-01-30T13:04:34;12.2;69.8
78455;SHT31;67751;51.986;5.696;2024-01-30T13:07:04;12.2;69.2
78455;SHT31;67751;51.986;5.696;2024-01-30T13:09:34;12.2;69.8
78455;SHT31;67751;51.986;5.696;2024-01-30T13:12:04;12.2;69.5
78455;SHT31;67751;51.986;5.696;2024-01-30T13:14:34;12.2;68.3
78455;SHT31;67751;51.986;5.696;2024-01-30T13:17:04;12.2;68.6
78455;SHT31;67751;51.986;5.696;2024-01-30T13:19:33;12.2;68.3
78455;SHT31;67751;51.986;5.696;2024-01-30T13:22:03;12.2;67.8
78455;SHT31;67751;51.986;5.696;2024-01-30T13:24:32;12.2;68.3
78455;SHT31;67751;51.986;5.696;2024-01-30T13:27:03;12.2;68.8
78455;SHT31;67751;51.986;5.696;2024-01-30T13:29:34;12.2;68.8
78455;SHT31;67751;51.986;5.696;2024-01-30T13:32:04;12.1;68.4
78455;SHT31;67751;51.986;5.696;2024-01-30T13:34:34;12.1;68.9
78455;SHT31;67751;51.986;5.696;2024-01-30T13:37:03;12.1;68.4
78455;SHT31;67751;51.986;5.696;2024-01-30T13:39:33;12.0;68.9
78455;SHT31;67751;51.986;5.696;2024-01-30T13:42:03;12.0;68.6
78455;SHT31;67751;51.986;5.696;2024-01-30T13:44:33;11.9;68.4
78455;SHT31;67751;51.986;5.696;2024-01-30T13:47:03;11.9;69.3
78455;SHT31;67751;51.986;5.696;2024-01-30T13:49:35;11.9;68.9
78455;SHT31;67751;51.986;5.696;2024-01-30T13:52:05;11.8;68.4
78455;SHT31;67751;51.986;5.696;2024-01-30T13:54:35;11.8;68.8
78455;SHT31;67751;51.986;5.696;2024-01-30T13:57:05;11.7;68.1
78455;SHT31;67751;51.986;5.696;2024-01-30T13:59:37;11.7;69.1
78455;SHT31;67751;51.986;5.696;2024-01-30T14:02:07;11.6;68.7
78455;SHT31;67751;51.986;5.696;2024-01-30T14:04:37;11.6;68.9
78455;SHT31;67751;51.986;5.696;2024-01-30T14:07:07;11.6;69.0
78455;SHT31;67751;51.986;5.696;2024-01-30T14:09:37;11.6;70.1
78455;SHT31;67751;51.986;5.696;2024-01-30T14:12:09;11.6;70.1
78455;SHT31;67751;51.986;5.696;2024-01-30T14:14:38;11.6;68.9
78455;SHT31;67751;51.986;5.696;2024-01-30T14:17:08;11.6;68.8
78455;SHT31;67751;51.986;5.696;2024-01-30T14:19:38;11.6;68.5
78455;SHT31;67751;51.986;5.696;2024-01-30T14:22:08;11.6;68.9
78455;SHT31;67751;51.986;5.696;2024-01-30T14:24:38;11.5;69.5
78455;SHT31;67751;51.986;5.696;2024-01-30T14:27:09;11.5;69.6
78455;SHT31;67751;51.986;5.696;2024-01-30T14:29:41;11.5;69.4
78455;SHT31;67751;51.986;5.696;2024-01-30T14:32:11;11.5;70.6
78455;SHT31;67751;51.986;5.696;2024-01-30T14:34:40;11.5;70.1
78455;SHT31;67751;51.986;5.696;2024-01-30T14:37:10;11.5;70.5
78455;SHT31;67751;51.986;5.696;2024-01-30T14:39:41;11.5;70.4
78455;SHT31;67751;51.986;5.696;2024-01-30T14:42:10;11.5;69.9
78455;SHT31;67751;51.986;5.696;2024-01-30T14:44:40;11.5;70.1
78455;SHT31;67751;51.986;5.696;2024-01-30T14:47:12;11.5;70.1
78455;SHT31;67751;51.986;5.696;2024-01-30T14:49:43;11.5;70.4
78455;SHT31;67751;51.986;5.696;2024-01-30T14:52:12;11.5;70.5
78455;SHT31;67751;51.986;5.696;2024-01-30T14:54:42;11.5;70.5
78455;SHT31;67751;51.986;5.696;2024-01-30T14:57:12;11.5;70.9
78455;SHT31;67751;51.986;5.696;2024-01-30T14:59:41;11.5;70.7
78455;SHT31;67751;51.986;5.696;2024-01-30T15:02:11;11.4;71.1
78455;SHT31;67751;51.986;5.696;2024-01-30T15:04:41;11.4;70.5
78455;SHT31;67751;51.986;5.696;2024-01-30T15:07:10;11.4;70.3
78455;SHT31;67751;51.986;5.696;2024-01-30T15:09:40;11.4;70.9
78455;SHT31;67751;51.986;5.696;2024-01-30T15:12:10;11.3;70.6
78455;SHT31;67751;51.986;5.696;2024-01-30T15:14:40;11.3;71.3
78455;SHT31;67751;51.986;5.696;2024-01-30T15:17:14;11.3;71.6
78455;SHT31;67751;51.986;5.696;2024-01-30T15:19:44;11.3;71.5
78455;SHT31;67751;51.986;5.696;2024-01-30T15:22:14;11.3;71.4
78455;SHT31;67751;51.986;5.696;2024-01-30T15:24:43;11.3;71.6
78455;SHT31;67751;51.986;5.696;2024-01-30T15:27:13;11.3;71.4
78455;SHT31;67751;51.986;5.696;2024-01-30T15:29:43;11.2;71.2
78455;SHT31;67751;51.986;5.696;2024-01-30T15:32:12;11.2;71.6
78455;SHT31;67751;51.986;5.696;2024-01-30T15:34:42;11.2;72.2
78455;SHT31;67751;51.986;5.696;2024-01-30T15:37:14;11.2;72.5
78455;SHT31;67751;51.986;5.696;2024-01-30T15:39:43;11.1;72.4
78455;SHT31;67751;51.986;5.696;2024-01-30T15:42:13;11.1;72.7
78455;SHT31;67751;51.986;5.696;2024-01-30T15:44:43;11.1;72.9
78455;SHT31;67751;51.986;5.696;2024-01-30T15:47:12;11.1;73.1
78455;SHT31;67751;51.986;5.696;2024-01-30T15:49:42;11.1;73.2
78455;SHT31;67751;51.986;5.696;2024-01-30T15:52:13;11.0;73.3
78455;SHT31;67751;51.986;5.696;2024-01-30T15:54:46;11.0;73.5
78455;SHT31;67751;51.986;5.696;2024-01-30T15:57:17;11.0;73.6
78455;SHT31;67751;51.986;5.696;2024-01-30T15:59:46;11.0;73.8
78455;SHT31;67751;51.986;5.696;2024-01-30T16:02:16;11.0;74.2
78455;SHT31;67751;51.986;5.696;2024-01-30T16:04:47;11.0;74.1
78455;SHT31;67751;51.986;5.696;2024-01-30T16:07:17;11.0;73.9
78455;SHT31;67751;51.986;5.696;2024-01-30T16:09:46;11.0;74.0
78455;SHT31;67751;51.986;5.696;2024-01-30T16:12:16;11.0;73.9
78455;SHT31;67751;51.986;5.696;2024-01-30T16:14:47;10.9;73.9
78455;SHT31;67751;51.986;5.696;2024-01-30T16:17:17;10.9;74.0
78455;SHT31;67751;51.986;5.696;2024-01-30T16:19:48;10.9;74.2
78455;SHT31;67751;51.986;5.696;2024-01-30T16:22:18;10.9;74.3
78455;SHT31;67751;51.986;5.696;2024-01-30T16:24:47;10.9;74.3
78455;SHT31;67751;51.986;5.696;2024-01-30T16:27:17;10.9;74.5